Larchwood, Iowa
Current Conditions -  °F | °C
As of 1:55 PM on Sunday 23 Nov 2014 (Local Time) from KLYV Reporting Station
Overcast Overcast  
Wind Chill: 32°   Ceiling: 7000
Heat Index: 41°   Visibility: 10mi
Dew Point: 36°   Wind: 17mph
Humidity: 81%   Direction: 330°NNW
Pressure: 29.49"   Gusts: 23mph
Location:  43.45°N, 96.43°W
Report Text: KLYV 231955Z AUTO 33015G20KT 10SM BKN070 OVC080 05/02 A2949 RMK AO2
Loading
Personal Weather Stations






























Interactive Weather Map New forecast layout! Learn more

10-Day Weather Forecast

Advertisements
Track Severe Weather on mobile